Airfield :
LOGIN :

Register | Disclaimer

   EN    FR    IT 

 










Legend :    VFR   Marginal VFR   IFR   Intensive IFR   Very Intensive IFR
Visi :
Ceiling :
>= 8 km
>= 3000ft
5 to 8 km
1000 to 3000 ft
1500m to 5 km
500 to 1000 ft
800 to 1500m
200 to 500 ft
< 800m
< 200 ft
Symbols :   Thunderstorms  Fog  Heavy snow  Heavy precipitations  Wind > 20 kt
SIGMETs :     Misc.  Thunderstorms  Icing  Turbulence  Mountain Waves  Volcanic Ashes






- Airport Elevation : 257 ft
- IATA code : MAN


EGCC - Manchester

CURRENT METAR :
  • 280220Z AUTO 11006KT 010V160 9000 -RA BKN031/// //////CB 07/06 Q1001 TEMPO RA

EXPIRED METARs :
  • 280150Z AUTO VRB03KT 6000 -RA SCT029/// BKN035/// BKN042/// //////CB 07/06 Q1002
  • 280120Z AUTO 12005KT 030V190 9999 -RA SCT031 SCT047 07/06 Q1003 TEMPO RA
  • 280050Z AUTO 10006KT 040V170 9999 -RA SCT042/// //////TCU 07/06 Q1003 TEMPO RA
  • 280020Z AUTO 08006KT 060V130 6000 -RA SCT029/// BKN048/// //////TCU 07/06 Q1004 TEMPO RA
  • 272350Z AUTO 09005KT 6000 -RA OVC027/// //////TCU 07/06 Q1005

TAF AMD TAF EGCC
Valid from the 28 at 02:00 until the 29 at 06:00 UTC


280200Z 2802/2906 12008KT 9999 FEW008 BKN018
TEMPO 2802/2810 6000 RA BKN012
PROB30
TEMPO 2802/2809 3000 +RA BKN004
BECMG 2805/2808 25012KT
TEMPO 2817/2822 18010KT 6000 RA BKN014
PROB30
TEMPO 2817/2821 4000 +RA BKN006
PROB30
TEMPO 2902/2905 4000 SHRA BKN014
ATIS : +44 161 499 2324



MET'MAP, your aeronautical weather chart ! - Copyright ORBIFLY December 2007 - Disclaimer

ORBIFLY MET'MAP TEAM :

Programming & Development : Alexandra Zaïnal
Concept & original design : Baudouin d'Aumeries
Assistance for programming : Marc-Olivier Méhu
Technical & hardware support : Manuel Goepfert

Contact : metmap@orbifly.com




SOURCES & CREDITS :

   NOAA